sensor_id;sensor_type;location;lat;lon;timestamp;P1;durP1;ratioP1;P2;durP2;ratioP2
16870;SDS011;8552;48.120;-1.456;2023-11-19T00:01:39;11.05;;;3.35;;
16870;SDS011;8552;48.120;-1.456;2023-11-19T00:04:05;9.18;;;2.97;;
16870;SDS011;8552;48.120;-1.456;2023-11-19T00:06:31;7.07;;;2.70;;
16870;SDS011;8552;48.120;-1.456;2023-11-19T00:08:56;10.40;;;3.55;;
16870;SDS011;8552;48.120;-1.456;2023-11-19T00:11:22;14.48;;;3.22;;
16870;SDS011;8552;48.120;-1.456;2023-11-19T00:13:48;8.60;;;3.25;;
16870;SDS011;8552;48.120;-1.456;2023-11-19T00:16:13;9.75;;;3.40;;
16870;SDS011;8552;48.120;-1.456;2023-11-19T00:18:39;9.90;;;3.78;;
16870;SDS011;8552;48.120;-1.456;2023-11-19T00:21:05;13.23;;;4.10;;
16870;SDS011;8552;48.120;-1.456;2023-11-19T00:23:33;8.02;;;2.80;;
16870;SDS011;8552;48.120;-1.456;2023-11-19T00:25:58;12.18;;;3.03;;
16870;SDS011;8552;48.120;-1.456;2023-11-19T00:28:24;8.07;;;3.67;;
16870;SDS011;8552;48.120;-1.456;2023-11-19T00:30:50;12.13;;;3.78;;
16870;SDS011;8552;48.120;-1.456;2023-11-19T00:33:15;11.07;;;4.32;;
16870;SDS011;8552;48.120;-1.456;2023-11-19T00:35:41;17.20;;;5.03;;
16870;SDS011;8552;48.120;-1.456;2023-11-19T00:38:07;14.00;;;3.60;;
16870;SDS011;8552;48.120;-1.456;2023-11-19T00:40:32;9.38;;;3.35;;
16870;SDS011;8552;48.120;-1.456;2023-11-19T00:42:58;12.85;;;3.72;;
16870;SDS011;8552;48.120;-1.456;2023-11-19T00:45:24;11.50;;;3.22;;
16870;SDS011;8552;48.120;-1.456;2023-11-19T00:47:50;12.48;;;3.42;;
16870;SDS011;8552;48.120;-1.456;2023-11-19T00:50:16;19.17;;;4.25;;
16870;SDS011;8552;48.120;-1.456;2023-11-19T00:52:42;12.02;;;3.72;;
16870;SDS011;8552;48.120;-1.456;2023-11-19T00:55:08;12.40;;;3.35;;
16870;SDS011;8552;48.120;-1.456;2023-11-19T00:57:34;12.35;;;3.22;;
16870;SDS011;8552;48.120;-1.456;2023-11-19T01:00:00;14.93;;;3.33;;
16870;SDS011;8552;48.120;-1.456;2023-11-19T01:02:26;10.57;;;3.78;;
16870;SDS011;8552;48.120;-1.456;2023-11-19T01:04:52;11.68;;;3.47;;
16870;SDS011;8552;48.120;-1.456;2023-11-19T01:07:17;13.50;;;3.90;;
16870;SDS011;8552;48.120;-1.456;2023-11-19T01:09:43;9.10;;;3.25;;
16870;SDS011;8552;48.120;-1.456;2023-11-19T01:12:09;15.60;;;3.80;;
16870;SDS011;8552;48.120;-1.456;2023-11-19T01:14:35;14.77;;;3.95;;
16870;SDS011;8552;48.120;-1.456;2023-11-19T01:17:01;19.17;;;4.47;;
16870;SDS011;8552;48.120;-1.456;2023-11-19T01:19:27;12.93;;;3.00;;
16870;SDS011;8552;48.120;-1.456;2023-11-19T01:21:53;15.43;;;3.72;;
16870;SDS011;8552;48.120;-1.456;2023-11-19T01:24:19;16.92;;;3.40;;
16870;SDS011;8552;48.120;-1.456;2023-11-19T01:26:45;10.63;;;3.85;;
16870;SDS011;8552;48.120;-1.456;2023-11-19T01:29:14;15.90;;;4.10;;
16870;SDS011;8552;48.120;-1.456;2023-11-19T01:31:42;10.90;;;3.63;;
16870;SDS011;8552;48.120;-1.456;2023-11-19T01:34:10;12.88;;;4.25;;
16870;SDS011;8552;48.120;-1.456;2023-11-19T01:36:36;14.77;;;4.40;;
16870;SDS011;8552;48.120;-1.456;2023-11-19T01:39:02;18.13;;;4.07;;
16870;SDS011;8552;48.120;-1.456;2023-11-19T01:41:29;17.45;;;4.38;;
16870;SDS011;8552;48.120;-1.456;2023-11-19T01:44:01;21.17;;;4.10;;
16870;SDS011;8552;48.120;-1.456;2023-11-19T01:46:27;17.77;;;4.60;;
16870;SDS011;8552;48.120;-1.456;2023-11-19T01:48:57;17.52;;;4.28;;
16870;SDS011;8552;48.120;-1.456;2023-11-19T01:51:24;15.82;;;5.07;;
16870;SDS011;8552;48.120;-1.456;2023-11-19T01:53:50;24.30;;;4.50;;
16870;SDS011;8552;48.120;-1.456;2023-11-19T01:56:16;20.23;;;3.60;;
16870;SDS011;8552;48.120;-1.456;2023-11-19T01:58:42;17.15;;;3.90;;
16870;SDS011;8552;48.120;-1.456;2023-11-19T02:01:10;19.60;;;4.47;;
16870;SDS011;8552;48.120;-1.456;2023-11-19T02:03:37;13.18;;;4.05;;
16870;SDS011;8552;48.120;-1.456;2023-11-19T02:06:03;15.90;;;5.05;;
16870;SDS011;8552;48.120;-1.456;2023-11-19T02:08:30;13.52;;;4.15;;
16870;SDS011;8552;48.120;-1.456;2023-11-19T02:10:55;18.17;;;4.60;;
16870;SDS011;8552;48.120;-1.456;2023-11-19T02:13:25;12.00;;;3.75;;
16870;SDS011;8552;48.120;-1.456;2023-11-19T02:15:51;18.35;;;4.20;;
16870;SDS011;8552;48.120;-1.456;2023-11-19T02:20:44;26.05;;;5.03;;
16870;SDS011;8552;48.120;-1.456;2023-11-19T02:23:11;15.88;;;4.38;;
16870;SDS011;8552;48.120;-1.456;2023-11-19T02:25:38;21.02;;;4.68;;
16870;SDS011;8552;48.120;-1.456;2023-11-19T02:28:05;13.13;;;3.60;;
16870;SDS011;8552;48.120;-1.456;2023-11-19T02:30:32;21.40;;;5.15;;
16870;SDS011;8552;48.120;-1.456;2023-11-19T02:33:01;17.70;;;3.90;;
16870;SDS011;8552;48.120;-1.456;2023-11-19T02:35:30;16.80;;;4.35;;
16870;SDS011;8552;48.120;-1.456;2023-11-19T02:37:56;17.60;;;5.30;;
16870;SDS011;8552;48.120;-1.456;2023-11-19T02:40:22;12.43;;;4.32;;
16870;SDS011;8552;48.120;-1.456;2023-11-19T02:42:51;24.23;;;5.22;;
16870;SDS011;8552;48.120;-1.456;2023-11-19T02:45:18;19.70;;;4.45;;
16870;SDS011;8552;48.120;-1.456;2023-11-19T02:47:43;14.45;;;3.28;;
16870;SDS011;8552;48.120;-1.456;2023-11-19T02:50:10;20.33;;;5.25;;
16870;SDS011;8552;48.120;-1.456;2023-11-19T02:52:40;21.55;;;4.03;;
16870;SDS011;8552;48.120;-1.456;2023-11-19T02:55:06;18.38;;;3.88;;
16870;SDS011;8552;48.120;-1.456;2023-11-19T02:57:37;15.85;;;3.83;;
16870;SDS011;8552;48.120;-1.456;2023-11-19T03:00:05;18.77;;;4.88;;
16870;SDS011;8552;48.120;-1.456;2023-11-19T03:02:39;18.85;;;4.90;;
16870;SDS011;8552;48.120;-1.456;2023-11-19T03:05:10;22.20;;;4.97;;
16870;SDS011;8552;48.120;-1.456;2023-11-19T03:07:37;22.33;;;4.93;;
16870;SDS011;8552;48.120;-1.456;2023-11-19T03:10:02;18.80;;;4.75;;
16870;SDS011;8552;48.120;-1.456;2023-11-19T03:12:30;17.33;;;4.93;;
16870;SDS011;8552;48.120;-1.456;2023-11-19T03:14:56;22.45;;;4.60;;
16870;SDS011;8552;48.120;-1.456;2023-11-19T03:17:22;19.08;;;4.57;;
16870;SDS011;8552;48.120;-1.456;2023-11-19T03:19:49;18.67;;;5.35;;
16870;SDS011;8552;48.120;-1.456;2023-11-19T03:22:15;13.77;;;3.88;;
16870;SDS011;8552;48.120;-1.456;2023-11-19T03:24:40;19.27;;;6.05;;
16870;SDS011;8552;48.120;-1.456;2023-11-19T03:27:06;26.63;;;4.93;;
16870;SDS011;8552;48.120;-1.456;2023-11-19T03:29:32;20.38;;;4.20;;
16870;SDS011;8552;48.120;-1.456;2023-11-19T03:31:57;23.10;;;5.38;;
16870;SDS011;8552;48.120;-1.456;2023-11-19T03:34:23;16.88;;;3.90;;
16870;SDS011;8552;48.120;-1.456;2023-11-19T03:36:48;22.90;;;4.50;;
16870;SDS011;8552;48.120;-1.456;2023-11-19T03:39:14;21.15;;;4.72;;
16870;SDS011;8552;48.120;-1.456;2023-11-19T03:41:40;24.10;;;4.93;;
16870;SDS011;8552;48.120;-1.456;2023-11-19T03:44:05;16.63;;;5.30;;
16870;SDS011;8552;48.120;-1.456;2023-11-19T03:46:31;19.52;;;5.30;;
16870;SDS011;8552;48.120;-1.456;2023-11-19T03:48:56;20.00;;;5.90;;
16870;SDS011;8552;48.120;-1.456;2023-11-19T03:51:22;29.38;;;6.28;;
16870;SDS011;8552;48.120;-1.456;2023-11-19T03:53:48;24.60;;;4.78;;
16870;SDS011;8552;48.120;-1.456;2023-11-19T03:56:13;29.58;;;5.30;;
16870;SDS011;8552;48.120;-1.456;2023-11-19T03:58:39;25.55;;;6.43;;
16870;SDS011;8552;48.120;-1.456;2023-11-19T04:01:05;23.67;;;5.75;;
16870;SDS011;8552;48.120;-1.456;2023-11-19T04:03:31;25.52;;;5.57;;
16870;SDS011;8552;48.120;-1.456;2023-11-19T04:05:56;28.55;;;6.00;;
16870;SDS011;8552;48.120;-1.456;2023-11-19T04:08:22;28.48;;;4.93;;
16870;SDS011;8552;48.120;-1.456;2023-11-19T04:10:48;25.73;;;5.43;;
16870;SDS011;8552;48.120;-1.456;2023-11-19T04:13:14;26.58;;;6.18;;
16870;SDS011;8552;48.120;-1.456;2023-11-19T04:15:39;20.75;;;6.03;;
16870;SDS011;8552;48.120;-1.456;2023-11-19T04:18:05;27.55;;;6.25;;
16870;SDS011;8552;48.120;-1.456;2023-11-19T04:20:31;25.95;;;5.75;;
16870;SDS011;8552;48.120;-1.456;2023-11-19T04:22:56;25.50;;;4.75;;
16870;SDS011;8552;48.120;-1.456;2023-11-19T04:25:22;25.70;;;6.05;;
16870;SDS011;8552;48.120;-1.456;2023-11-19T04:27:51;27.50;;;6.63;;
16870;SDS011;8552;48.120;-1.456;2023-11-19T04:30:17;28.92;;;6.95;;
16870;SDS011;8552;48.120;-1.456;2023-11-19T04:32:46;28.88;;;6.97;;
16870;SDS011;8552;48.120;-1.456;2023-11-19T04:35:13;32.15;;;6.82;;
16870;SDS011;8552;48.120;-1.456;2023-11-19T04:37:39;28.52;;;6.85;;
16870;SDS011;8552;48.120;-1.456;2023-11-19T04:40:06;27.33;;;7.10;;
16870;SDS011;8552;48.120;-1.456;2023-11-19T04:42:32;28.55;;;6.72;;
16870;SDS011;8552;48.120;-1.456;2023-11-19T04:44:58;34.05;;;7.53;;
16870;SDS011;8552;48.120;-1.456;2023-11-19T04:47:23;31.77;;;7.13;;
16870;SDS011;8552;48.120;-1.456;2023-11-19T04:49:49;31.13;;;6.25;;
16870;SDS011;8552;48.120;-1.456;2023-11-19T04:52:15;27.20;;;6.30;;
16870;SDS011;8552;48.120;-1.456;2023-11-19T04:54:41;33.85;;;7.70;;
16870;SDS011;8552;48.120;-1.456;2023-11-19T04:57:10;30.17;;;6.38;;
16870;SDS011;8552;48.120;-1.456;2023-11-19T04:59:38;29.52;;;7.45;;
16870;SDS011;8552;48.120;-1.456;2023-11-19T05:02:04;30.75;;;5.80;;
16870;SDS011;8552;48.120;-1.456;2023-11-19T05:04:30;19.63;;;4.70;;
16870;SDS011;8552;48.120;-1.456;2023-11-19T05:06:56;27.58;;;5.00;;
16870;SDS011;8552;48.120;-1.456;2023-11-19T05:09:22;30.17;;;6.13;;
16870;SDS011;8552;48.120;-1.456;2023-11-19T05:11:48;36.40;;;7.50;;
16870;SDS011;8552;48.120;-1.456;2023-11-19T05:14:13;27.30;;;6.32;;
16870;SDS011;8552;48.120;-1.456;2023-11-19T05:16:40;28.77;;;6.10;;
16870;SDS011;8552;48.120;-1.456;2023-11-19T05:19:06;26.73;;;6.38;;
16870;SDS011;8552;48.120;-1.456;2023-11-19T05:21:32;26.55;;;5.30;;
16870;SDS011;8552;48.120;-1.456;2023-11-19T05:23:58;24.00;;;5.38;;
16870;SDS011;8552;48.120;-1.456;2023-11-19T05:26:24;21.63;;;5.55;;
16870;SDS011;8552;48.120;-1.456;2023-11-19T05:28:50;25.83;;;5.53;;
16870;SDS011;8552;48.120;-1.456;2023-11-19T05:31:16;23.08;;;5.70;;
16870;SDS011;8552;48.120;-1.456;2023-11-19T05:33:42;19.58;;;4.63;;
16870;SDS011;8552;48.120;-1.456;2023-11-19T05:36:08;17.98;;;4.75;;
16870;SDS011;8552;48.120;-1.456;2023-11-19T05:38:36;25.73;;;6.18;;
16870;SDS011;8552;48.120;-1.456;2023-11-19T05:41:02;35.28;;;6.10;;
16870;SDS011;8552;48.120;-1.456;2023-11-19T05:43:28;30.08;;;5.43;;
16870;SDS011;8552;48.120;-1.456;2023-11-19T05:45:54;29.75;;;6.47;;
16870;SDS011;8552;48.120;-1.456;2023-11-19T05:48:19;33.72;;;7.25;;
16870;SDS011;8552;48.120;-1.456;2023-11-19T05:50:45;22.42;;;6.55;;
16870;SDS011;8552;48.120;-1.456;2023-11-19T05:53:11;24.90;;;6.05;;
16870;SDS011;8552;48.120;-1.456;2023-11-19T05:55:39;30.73;;;7.07;;
16870;SDS011;8552;48.120;-1.456;2023-11-19T05:58:11;22.30;;;6.97;;
16870;SDS011;8552;48.120;-1.456;2023-11-19T06:00:38;40.95;;;8.88;;
16870;SDS011;8552;48.120;-1.456;2023-11-19T06:03:05;32.42;;;5.93;;
16870;SDS011;8552;48.120;-1.456;2023-11-19T06:05:31;32.70;;;7.70;;
16870;SDS011;8552;48.120;-1.456;2023-11-19T06:07:57;35.03;;;8.20;;
16870;SDS011;8552;48.120;-1.456;2023-11-19T06:10:23;37.45;;;6.53;;
16870;SDS011;8552;48.120;-1.456;2023-11-19T06:12:57;30.73;;;7.30;;
16870;SDS011;8552;48.120;-1.456;2023-11-19T06:15:24;46.50;;;7.97;;
16870;SDS011;8552;48.120;-1.456;2023-11-19T06:17:53;38.63;;;6.25;;
16870;SDS011;8552;48.120;-1.456;2023-11-19T06:20:20;34.90;;;7.03;;
16870;SDS011;8552;48.120;-1.456;2023-11-19T06:22:46;40.75;;;8.55;;
16870;SDS011;8552;48.120;-1.456;2023-11-19T06:25:11;27.20;;;6.28;;
16870;SDS011;8552;48.120;-1.456;2023-11-19T06:27:40;32.75;;;8.00;;
16870;SDS011;8552;48.120;-1.456;2023-11-19T06:30:06;28.48;;;8.05;;
16870;SDS011;8552;48.120;-1.456;2023-11-19T06:32:32;37.53;;;9.57;;
16870;SDS011;8552;48.120;-1.456;2023-11-19T06:34:58;40.35;;;9.00;;
16870;SDS011;8552;48.120;-1.456;2023-11-19T06:37:23;33.22;;;9.63;;
16870;SDS011;8552;48.120;-1.456;2023-11-19T06:39:49;49.88;;;10.57;;
16870;SDS011;8552;48.120;-1.456;2023-11-19T06:42:15;37.47;;;8.23;;
16870;SDS011;8552;48.120;-1.456;2023-11-19T06:44:42;45.00;;;8.13;;
16870;SDS011;8552;48.120;-1.456;2023-11-19T06:47:07;43.30;;;8.30;;
16870;SDS011;8552;48.120;-1.456;2023-11-19T06:49:33;48.67;;;8.43;;
16870;SDS011;8552;48.120;-1.456;2023-11-19T06:51:59;43.13;;;9.52;;
16870;SDS011;8552;48.120;-1.456;2023-11-19T06:54:24;51.65;;;11.30;;
16870;SDS011;8552;48.120;-1.456;2023-11-19T06:56:50;39.03;;;8.40;;
16870;SDS011;8552;48.120;-1.456;2023-11-19T06:59:16;33.42;;;7.22;;
16870;SDS011;8552;48.120;-1.456;2023-11-19T07:01:42;47.67;;;9.98;;
16870;SDS011;8552;48.120;-1.456;2023-11-19T07:04:10;41.90;;;8.07;;
16870;SDS011;8552;48.120;-1.456;2023-11-19T07:06:37;35.58;;;9.07;;
16870;SDS011;8552;48.120;-1.456;2023-11-19T07:09:04;44.30;;;7.45;;
16870;SDS011;8552;48.120;-1.456;2023-11-19T07:11:37;32.88;;;8.13;;
16870;SDS011;8552;48.120;-1.456;2023-11-19T07:14:04;32.60;;;8.15;;
16870;SDS011;8552;48.120;-1.456;2023-11-19T07:16:31;37.13;;;7.15;;
16870;SDS011;8552;48.120;-1.456;2023-11-19T07:18:59;39.38;;;7.85;;
16870;SDS011;8552;48.120;-1.456;2023-11-19T07:21:28;34.25;;;7.60;;
16870;SDS011;8552;48.120;-1.456;2023-11-19T07:23:54;28.88;;;6.63;;
16870;SDS011;8552;48.120;-1.456;2023-11-19T07:26:20;43.22;;;9.38;;
16870;SDS011;8552;48.120;-1.456;2023-11-19T07:28:47;44.03;;;8.27;;
16870;SDS011;8552;48.120;-1.456;2023-11-19T07:31:13;29.70;;;7.85;;
16870;SDS011;8552;48.120;-1.456;2023-11-19T07:33:41;32.75;;;7.47;;
16870;SDS011;8552;48.120;-1.456;2023-11-19T07:36:10;30.33;;;7.05;;
16870;SDS011;8552;48.120;-1.456;2023-11-19T07:38:36;44.15;;;8.18;;
16870;SDS011;8552;48.120;-1.456;2023-11-19T07:41:03;39.53;;;7.85;;
16870;SDS011;8552;48.120;-1.456;2023-11-19T07:43:30;45.42;;;10.48;;
16870;SDS011;8552;48.120;-1.456;2023-11-19T07:45:55;36.78;;;8.48;;
16870;SDS011;8552;48.120;-1.456;2023-11-19T07:48:24;37.10;;;7.55;;
16870;SDS011;8552;48.120;-1.456;2023-11-19T07:50:49;36.28;;;8.55;;
16870;SDS011;8552;48.120;-1.456;2023-11-19T07:53:18;43.60;;;8.20;;
16870;SDS011;8552;48.120;-1.456;2023-11-19T07:55:45;38.92;;;8.18;;
16870;SDS011;8552;48.120;-1.456;2023-11-19T07:58:11;34.47;;;7.88;;
16870;SDS011;8552;48.120;-1.456;2023-11-19T08:00:37;51.67;;;10.52;;
16870;SDS011;8552;48.120;-1.456;2023-11-19T08:03:03;48.38;;;9.23;;
16870;SDS011;8552;48.120;-1.456;2023-11-19T08:05:30;41.80;;;7.82;;
16870;SDS011;8552;48.120;-1.456;2023-11-19T08:07:56;49.47;;;10.77;;
16870;SDS011;8552;48.120;-1.456;2023-11-19T08:10:23;47.20;;;10.23;;
16870;SDS011;8552;48.120;-1.456;2023-11-19T08:12:49;47.75;;;9.38;;
16870;SDS011;8552;48.120;-1.456;2023-11-19T08:15:14;31.77;;;8.63;;
16870;SDS011;8552;48.120;-1.456;2023-11-19T08:17:41;49.05;;;10.57;;
16870;SDS011;8552;48.120;-1.456;2023-11-19T08:20:08;45.40;;;8.77;;
16870;SDS011;8552;48.120;-1.456;2023-11-19T08:22:37;48.63;;;12.25;;
16870;SDS011;8552;48.120;-1.456;2023-11-19T08:25:06;36.75;;;8.60;;
16870;SDS011;8552;48.120;-1.456;2023-11-19T08:27:33;40.20;;;9.85;;
16870;SDS011;8552;48.120;-1.456;2023-11-19T08:29:59;51.08;;;11.05;;
16870;SDS011;8552;48.120;-1.456;2023-11-19T08:32:25;46.17;;;10.32;;
16870;SDS011;8552;48.120;-1.456;2023-11-19T08:34:51;54.88;;;8.63;;
16870;SDS011;8552;48.120;-1.456;2023-11-19T08:37:17;37.00;;;8.20;;
16870;SDS011;8552;48.120;-1.456;2023-11-19T08:39:49;45.42;;;8.35;;
16870;SDS011;8552;48.120;-1.456;2023-11-19T08:42:21;45.20;;;8.55;;
16870;SDS011;8552;48.120;-1.456;2023-11-19T08:44:50;49.03;;;11.20;;
16870;SDS011;8552;48.120;-1.456;2023-11-19T08:47:19;48.72;;;8.68;;
16870;SDS011;8552;48.120;-1.456;2023-11-19T08:49:45;43.55;;;8.45;;
16870;SDS011;8552;48.120;-1.456;2023-11-19T08:52:11;41.45;;;8.57;;
16870;SDS011;8552;48.120;-1.456;2023-11-19T08:54:37;37.53;;;9.05;;
16870;SDS011;8552;48.120;-1.456;2023-11-19T08:57:03;41.60;;;8.70;;
16870;SDS011;8552;48.120;-1.456;2023-11-19T08:59:29;43.70;;;8.30;;
16870;SDS011;8552;48.120;-1.456;2023-11-19T09:02:05;45.83;;;10.73;;
16870;SDS011;8552;48.120;-1.456;2023-11-19T09:04:32;47.33;;;8.73;;
16870;SDS011;8552;48.120;-1.456;2023-11-19T09:06:58;36.42;;;7.95;;
16870;SDS011;8552;48.120;-1.456;2023-11-19T09:09:24;38.25;;;8.25;;
16870;SDS011;8552;48.120;-1.456;2023-11-19T09:11:51;43.28;;;8.02;;
16870;SDS011;8552;48.120;-1.456;2023-11-19T09:14:16;31.42;;;8.15;;
16870;SDS011;8552;48.120;-1.456;2023-11-19T09:16:43;43.22;;;8.60;;
16870;SDS011;8552;48.120;-1.456;2023-11-19T09:19:09;35.05;;;7.80;;
16870;SDS011;8552;48.120;-1.456;2023-11-19T09:21:34;46.95;;;10.63;;
16870;SDS011;8552;48.120;-1.456;2023-11-19T09:24:03;39.47;;;10.10;;
16870;SDS011;8552;48.120;-1.456;2023-11-19T09:26:29;41.22;;;10.20;;
16870;SDS011;8552;48.120;-1.456;2023-11-19T09:28:56;37.75;;;8.75;;
16870;SDS011;8552;48.120;-1.456;2023-11-19T09:31:22;37.17;;;8.60;;
16870;SDS011;8552;48.120;-1.456;2023-11-19T09:33:47;35.65;;;7.57;;
16870;SDS011;8552;48.120;-1.456;2023-11-19T09:36:13;44.42;;;9.18;;
16870;SDS011;8552;48.120;-1.456;2023-11-19T09:38:39;34.58;;;8.88;;
16870;SDS011;8552;48.120;-1.456;2023-11-19T09:41:09;35.65;;;8.93;;
16870;SDS011;8552;48.120;-1.456;2023-11-19T09:43:37;38.45;;;8.25;;
16870;SDS011;8552;48.120;-1.456;2023-11-19T09:46:04;39.40;;;8.07;;
16870;SDS011;8552;48.120;-1.456;2023-11-19T09:48:35;29.45;;;8.18;;
16870;SDS011;8552;48.120;-1.456;2023-11-19T09:51:02;34.70;;;8.43;;
16870;SDS011;8552;48.120;-1.456;2023-11-19T09:53:29;37.47;;;7.18;;
16870;SDS011;8552;48.120;-1.456;2023-11-19T09:55:55;31.02;;;8.38;;
16870;SDS011;8552;48.120;-1.456;2023-11-19T09:58:21;44.97;;;8.43;;
16870;SDS011;8552;48.120;-1.456;2023-11-19T10:00:47;24.65;;;6.75;;
16870;SDS011;8552;48.120;-1.456;2023-11-19T10:03:15;39.03;;;7.50;;
16870;SDS011;8552;48.120;-1.456;2023-11-19T10:05:41;32.20;;;7.45;;
16870;SDS011;8552;48.120;-1.456;2023-11-19T10:08:07;36.47;;;6.82;;
16870;SDS011;8552;48.120;-1.456;2023-11-19T10:10:39;28.55;;;5.63;;
16870;SDS011;8552;48.120;-1.456;2023-11-19T10:13:04;30.10;;;7.20;;
16870;SDS011;8552;48.120;-1.456;2023-11-19T10:15:33;34.60;;;6.57;;
16870;SDS011;8552;48.120;-1.456;2023-11-19T10:18:02;43.42;;;6.97;;
16870;SDS011;8552;48.120;-1.456;2023-11-19T10:20:34;27.75;;;7.47;;
16870;SDS011;8552;48.120;-1.456;2023-11-19T10:23:00;31.45;;;6.57;;
16870;SDS011;8552;48.120;-1.456;2023-11-19T10:25:27;37.65;;;6.88;;
16870;SDS011;8552;48.120;-1.456;2023-11-19T10:27:54;35.40;;;6.70;;
16870;SDS011;8552;48.120;-1.456;2023-11-19T10:30:27;22.63;;;5.95;;
16870;SDS011;8552;48.120;-1.456;2023-11-19T10:33:10;33.42;;;7.22;;
16870;SDS011;8552;48.120;-1.456;2023-11-19T10:35:55;29.60;;;6.28;;
16870;SDS011;8552;48.120;-1.456;2023-11-19T10:38:22;23.95;;;6.05;;
16870;SDS011;8552;48.120;-1.456;2023-11-19T10:40:49;26.63;;;6.85;;
16870;SDS011;8552;48.120;-1.456;2023-11-19T10:43:16;26.00;;;5.72;;
16870;SDS011;8552;48.120;-1.456;2023-11-19T10:45:46;24.83;;;6.80;;
16870;SDS011;8552;48.120;-1.456;2023-11-19T10:48:12;22.15;;;4.47;;
16870;SDS011;8552;48.120;-1.456;2023-11-19T10:50:38;23.50;;;5.10;;
16870;SDS011;8552;48.120;-1.456;2023-11-19T10:53:06;31.35;;;6.50;;
16870;SDS011;8552;48.120;-1.456;2023-11-19T10:55:34;20.50;;;4.60;;
16870;SDS011;8552;48.120;-1.456;2023-11-19T10:58:05;28.13;;;5.60;;
16870;SDS011;8552;48.120;-1.456;2023-11-19T11:03:20;24.40;;;5.60;;
16870;SDS011;8552;48.120;-1.456;2023-11-19T11:05:50;21.35;;;4.18;;
16870;SDS011;8552;48.120;-1.456;2023-11-19T11:08:17;29.58;;;6.00;;
16870;SDS011;8552;48.120;-1.456;2023-11-19T11:10:54;31.98;;;6.15;;
16870;SDS011;8552;48.120;-1.456;2023-11-19T11:13:24;18.15;;;5.00;;
16870;SDS011;8552;48.120;-1.456;2023-11-19T11:15:52;20.02;;;3.97;;
16870;SDS011;8552;48.120;-1.456;2023-11-19T11:18:21;24.33;;;6.55;;
16870;SDS011;8552;48.120;-1.456;2023-11-19T11:20:48;23.08;;;5.40;;
16870;SDS011;8552;48.120;-1.456;2023-11-19T11:34:54;20.35;;;5.03;;
16870;SDS011;8552;48.120;-1.456;2023-11-19T11:37:34;22.05;;;5.15;;
16870;SDS011;8552;48.120;-1.456;2023-11-19T11:40:04;21.25;;;4.32;;
16870;SDS011;8552;48.120;-1.456;2023-11-19T11:42:35;21.88;;;5.20;;
16870;SDS011;8552;48.120;-1.456;2023-11-19T11:50:10;30.52;;;6.88;;
16870;SDS011;8552;48.120;-1.456;2023-11-19T11:55:24;26.33;;;5.18;;
16870;SDS011;8552;48.120;-1.456;2023-11-19T11:57:59;28.63;;;6.72;;
16870;SDS011;8552;48.120;-1.456;2023-11-19T12:00:29;17.98;;;4.63;;
16870;SDS011;8552;48.120;-1.456;2023-11-19T12:02:56;24.98;;;5.43;;
16870;SDS011;8552;48.120;-1.456;2023-11-19T12:05:24;18.80;;;4.53;;
16870;SDS011;8552;48.120;-1.456;2023-11-19T12:07:56;30.50;;;6.07;;
16870;SDS011;8552;48.120;-1.456;2023-11-19T12:10:26;23.15;;;4.78;;
16870;SDS011;8552;48.120;-1.456;2023-11-19T12:12:59;20.63;;;4.53;;
16870;SDS011;8552;48.120;-1.456;2023-11-19T12:15:26;24.88;;;4.80;;
16870;SDS011;8552;48.120;-1.456;2023-11-19T12:17:53;19.10;;;5.65;;
16870;SDS011;8552;48.120;-1.456;2023-11-19T12:20:23;19.15;;;4.63;;
16870;SDS011;8552;48.120;-1.456;2023-11-19T12:22:50;17.85;;;4.30;;
16870;SDS011;8552;48.120;-1.456;2023-11-19T12:25:17;21.33;;;4.18;;
16870;SDS011;8552;48.120;-1.456;2023-11-19T12:27:47;16.98;;;4.35;;
16870;SDS011;8552;48.120;-1.456;2023-11-19T12:30:17;25.65;;;4.43;;
16870;SDS011;8552;48.120;-1.456;2023-11-19T12:32:50;20.52;;;3.70;;
16870;SDS011;8552;48.120;-1.456;2023-11-19T12:35:18;25.58;;;4.68;;
16870;SDS011;8552;48.120;-1.456;2023-11-19T12:37:51;17.98;;;4.70;;
16870;SDS011;8552;48.120;-1.456;2023-11-19T12:42:44;20.35;;;4.63;;
16870;SDS011;8552;48.120;-1.456;2023-11-19T12:45:11;21.15;;;4.13;;
16870;SDS011;8552;48.120;-1.456;2023-11-19T12:47:39;17.63;;;4.28;;
16870;SDS011;8552;48.120;-1.456;2023-11-19T12:50:06;20.92;;;4.80;;
16870;SDS011;8552;48.120;-1.456;2023-11-19T12:52:36;14.40;;;3.78;;
16870;SDS011;8552;48.120;-1.456;2023-11-19T12:55:03;14.60;;;4.53;;
16870;SDS011;8552;48.120;-1.456;2023-11-19T12:57:47;16.67;;;3.60;;
16870;SDS011;8552;48.120;-1.456;2023-11-19T13:00:20;15.80;;;3.05;;
16870;SDS011;8552;48.120;-1.456;2023-11-19T13:05:31;20.88;;;3.90;;
16870;SDS011;8552;48.120;-1.456;2023-11-19T13:10:29;16.88;;;3.55;;
16870;SDS011;8552;48.120;-1.456;2023-11-19T13:13:00;19.75;;;4.50;;
16870;SDS011;8552;48.120;-1.456;2023-11-19T13:15:27;12.13;;;3.05;;
16870;SDS011;8552;48.120;-1.456;2023-11-19T13:17:59;21.52;;;4.75;;
16870;SDS011;8552;48.120;-1.456;2023-11-19T13:20:27;19.58;;;4.13;;
16870;SDS011;8552;48.120;-1.456;2023-11-19T13:23:02;16.67;;;4.45;;
16870;SDS011;8552;48.120;-1.456;2023-11-19T13:25:31;19.45;;;3.85;;
16870;SDS011;8552;48.120;-1.456;2023-11-19T13:27:59;17.00;;;3.97;;
16870;SDS011;8552;48.120;-1.456;2023-11-19T13:30:27;22.02;;;4.13;;
16870;SDS011;8552;48.120;-1.456;2023-11-19T13:32:59;23.02;;;4.03;;
16870;SDS011;8552;48.120;-1.456;2023-11-19T13:35:27;15.25;;;3.20;;
16870;SDS011;8552;48.120;-1.456;2023-11-19T13:37:54;21.58;;;4.28;;
16870;SDS011;8552;48.120;-1.456;2023-11-19T13:40:23;21.27;;;3.50;;
16870;SDS011;8552;48.120;-1.456;2023-11-19T13:42:51;15.63;;;3.33;;
16870;SDS011;8552;48.120;-1.456;2023-11-19T13:45:19;13.55;;;3.83;;
16870;SDS011;8552;48.120;-1.456;2023-11-19T13:47:46;15.48;;;3.70;;
16870;SDS011;8552;48.120;-1.456;2023-11-19T13:50:17;22.13;;;4.70;;
16870;SDS011;8552;48.120;-1.456;2023-11-19T13:52:46;15.85;;;3.30;;
16870;SDS011;8552;48.120;-1.456;2023-11-19T13:55:14;16.77;;;3.28;;
16870;SDS011;8552;48.120;-1.456;2023-11-19T13:57:41;17.35;;;3.60;;
16870;SDS011;8552;48.120;-1.456;2023-11-19T14:00:16;16.90;;;3.67;;
16870;SDS011;8552;48.120;-1.456;2023-11-19T14:02:45;15.73;;;3.90;;
16870;SDS011;8552;48.120;-1.456;2023-11-19T14:05:13;16.00;;;2.95;;
16870;SDS011;8552;48.120;-1.456;2023-11-19T14:07:42;12.68;;;4.30;;
16870;SDS011;8552;48.120;-1.456;2023-11-19T14:10:09;24.08;;;4.40;;
16870;SDS011;8552;48.120;-1.456;2023-11-19T14:12:38;20.73;;;4.25;;
16870;SDS011;8552;48.120;-1.456;2023-11-19T14:15:06;26.50;;;4.72;;
16870;SDS011;8552;48.120;-1.456;2023-11-19T14:17:44;16.67;;;3.45;;
16870;SDS011;8552;48.120;-1.456;2023-11-19T14:20:12;14.77;;;3.95;;
16870;SDS011;8552;48.120;-1.456;2023-11-19T14:22:42;19.73;;;4.20;;
16870;SDS011;8552;48.120;-1.456;2023-11-19T14:25:16;18.10;;;3.33;;
16870;SDS011;8552;48.120;-1.456;2023-11-19T14:27:44;19.83;;;3.67;;
16870;SDS011;8552;48.120;-1.456;2023-11-19T14:30:12;24.63;;;3.80;;
16870;SDS011;8552;48.120;-1.456;2023-11-19T14:32:42;22.05;;;4.85;;
16870;SDS011;8552;48.120;-1.456;2023-11-19T14:35:11;16.20;;;3.72;;
16870;SDS011;8552;48.120;-1.456;2023-11-19T14:37:37;14.23;;;4.65;;
16870;SDS011;8552;48.120;-1.456;2023-11-19T14:40:06;14.43;;;3.03;;
16870;SDS011;8552;48.120;-1.456;2023-11-19T14:42:36;15.70;;;4.05;;
16870;SDS011;8552;48.120;-1.456;2023-11-19T14:45:07;19.27;;;3.53;;
16870;SDS011;8552;48.120;-1.456;2023-11-19T14:47:36;14.85;;;3.60;;
16870;SDS011;8552;48.120;-1.456;2023-11-19T14:50:04;16.58;;;3.30;;
16870;SDS011;8552;48.120;-1.456;2023-11-19T14:52:34;20.10;;;3.80;;
16870;SDS011;8552;48.120;-1.456;2023-11-19T14:55:11;20.05;;;3.75;;
16870;SDS011;8552;48.120;-1.456;2023-11-19T14:57:40;17.05;;;4.40;;
16870;SDS011;8552;48.120;-1.456;2023-11-19T15:00:09;13.80;;;3.42;;
16870;SDS011;8552;48.120;-1.456;2023-11-19T15:02:40;14.65;;;3.33;;
16870;SDS011;8552;48.120;-1.456;2023-11-19T15:05:09;16.73;;;3.33;;
16870;SDS011;8552;48.120;-1.456;2023-11-19T15:07:37;16.25;;;3.42;;